Time;durP1;ratioP1;P1;durP2;ratioP2;P2;SDS_P1;SDS_P2;PMS_P1;PMS_P2;Temp;Humidity;BMP_temperature;BMP_pressure;BME280_temperature;BME280_humidity;BME280_pressure;Samples;Min_cycle;Max_cycle;Signal;HPM_P1;HPM_P2
2023/02/11 00:01:53;;;;;;;10.75;2.40;;;7.90;99.90;;;;;;5036242;28;20084;-40
2023/02/11 00:04:19;;;;;;;18.75;2.42;;;7.90;99.90;;;;;;5034831;28;20477;-40
2023/02/11 00:06:44;;;;;;;14.25;1.83;;;7.90;99.90;;;;;;5034922;28;20039;-40
2023/02/11 00:09:10;;;;;;;21.38;2.60;;;7.90;99.90;;;;;;5034766;28;20401;-41
2023/02/11 00:11:36;;;;;;;20.13;3.15;;;7.90;99.90;;;;;;5036055;28;20033;-41
2023/02/11 00:14:04;;;;;;;12.95;2.53;;;7.90;99.90;;;;;;5035887;28;20031;-40
2023/02/11 00:16:31;;;;;;;;;;;7.90;99.90;;;;;;5036320;28;20021;-41
2023/02/11 00:18:59;;;;;;;11.35;3.33;;;7.90;99.90;;;;;;5036070;28;19916;-39
2023/02/11 00:21:25;;;;;;;20.13;3.00;;;7.90;99.90;;;;;;5035969;28;20086;-39
2023/02/11 00:23:51;;;;;;;16.02;3.17;;;7.80;99.90;;;;;;5033115;28;20041;-35
2023/02/11 00:26:23;;;;;;;17.50;2.80;;;7.80;99.90;;;;;;5035651;28;20482;-36
2023/02/11 00:28:49;;;;;;;16.92;2.25;;;7.80;99.90;;;;;;5067620;28;20052;-36
2023/02/11 00:31:16;;;;;;;19.27;2.70;;;7.80;99.90;;;;;;5035502;28;20040;-49
2023/02/11 00:33:42;;;;;;;17.50;3.25;;;7.80;99.90;;;;;;5035726;28;20547;-40
2023/02/11 00:36:14;;;;;;;10.73;2.17;;;7.80;99.90;;;;;;5033626;28;20021;-38
2023/02/11 00:38:41;;;;;;;14.18;2.08;;;7.80;99.90;;;;;;5016026;28;20475;-39
2023/02/11 00:41:07;;;;;;;25.45;2.30;;;7.80;99.90;;;;;;5023054;28;20036;-38
2023/02/11 00:43:32;;;;;;;9.10;1.95;;;7.70;99.90;;;;;;5035394;28;20033;-38
2023/02/11 00:45:58;;;;;;;13.13;2.33;;;7.70;99.90;;;;;;5021187;28;20497;-40
2023/02/11 00:48:24;;;;;;;17.23;2.83;;;7.70;99.90;;;;;;5033483;28;20036;-38
2023/02/11 00:50:49;;;;;;;10.60;2.45;;;7.80;99.90;;;;;;5033740;28;20401;-39
2023/02/11 00:53:15;;;;;;;13.60;3.17;;;7.80;99.90;;;;;;5034380;28;20587;-35
2023/02/11 00:55:41;;;;;;;20.48;2.40;;;7.80;99.90;;;;;;5032991;28;20033;-36
2023/02/11 00:58:06;;;;;;;10.93;2.17;;;7.70;99.90;;;;;;5033450;28;20105;-34
2023/02/11 01:00:32;;;;;;;22.50;3.40;;;7.80;99.90;;;;;;5035018;28;20025;-31
2023/02/11 01:02:57;;;;;;;11.20;2.38;;;7.80;99.90;;;;;;5034983;28;20434;-35
2023/02/11 01:05:23;;;;;;;13.95;2.05;;;7.80;99.90;;;;;;5033525;28;20033;-36
2023/02/11 01:07:49;;;;;;;6.53;2.22;;;7.80;99.90;;;;;;5034899;28;20086;-32
2023/02/11 01:10:15;;;;;;;17.35;2.97;;;7.80;99.90;;;;;;5035032;28;20033;-48
2023/02/11 01:12:40;;;;;;;21.38;2.53;;;7.80;99.90;;;;;;5034756;28;20013;-46
2023/02/11 01:15:08;;;;;;;14.88;2.45;;;7.90;99.90;;;;;;5026556;28;20145;-44
2023/02/11 01:17:35;;;;;;;21.08;2.95;;;7.80;99.90;;;;;;5015273;28;20100;-46
2023/02/11 01:20:10;;;;;;;14.88;2.50;;;7.90;99.90;;;;;;5014984;28;20101;-39
2023/02/11 01:22:38;;;;;;;8.93;2.50;;;7.90;99.90;;;;;;5016327;28;20018;-38
2023/02/11 01:25:04;;;;;;;9.95;2.80;;;7.80;99.90;;;;;;5025181;28;20038;-37
2023/02/11 01:27:30;;;;;;;17.48;2.50;;;7.80;99.90;;;;;;5014237;28;20033;-38
2023/02/11 01:29:56;;;;;;;20.77;3.67;;;7.70;99.90;;;;;;5015408;28;20026;-35
2023/02/11 01:32:22;;;;;;;11.98;2.45;;;7.70;99.90;;;;;;5032917;28;20030;-34
2023/02/11 01:34:49;;;;;;;10.70;2.78;;;7.70;99.90;;;;;;5018761;28;20478;-37
2023/02/11 01:37:14;;;;;;;14.52;1.98;;;7.70;99.90;;;;;;5022291;28;20030;-38
2023/02/11 01:39:40;;;;;;;18.48;2.63;;;7.70;99.90;;;;;;5021837;28;20152;-36
2023/02/11 01:42:06;;;;;;;13.75;2.85;;;7.70;99.90;;;;;;5030512;28;20026;-34
2023/02/11 01:44:38;;;;;;;21.63;3.63;;;7.70;99.90;;;;;;5016323;28;20378;-36
2023/02/11 01:47:05;;;;;;;11.45;2.40;;;7.60;99.90;;;;;;5014683;28;20040;-34
2023/02/11 01:49:41;;;;;;;10.10;2.33;;;7.60;99.90;;;;;;5025668;28;20056;-37
2023/02/11 01:52:33;;;;;;;10.75;2.40;;;7.60;99.90;;;;;;5031523;28;20029;-36
2023/02/11 01:57:50;;;;;;;20.90;3.47;;;7.40;99.90;;;;;;5014383;28;20095;-34
2023/02/11 02:00:37;;;;;;;14.15;3.28;;;7.40;99.90;;;;;;5014111;28;20422;-36
2023/02/11 02:03:11;;;;;;;10.02;2.47;;;7.40;99.90;;;;;;5013785;28;20053;-35
2023/02/11 02:05:52;;;;;;;14.68;2.63;;;7.40;99.90;;;;;;5017560;28;20112;-33
2023/02/11 02:08:30;;;;;;;16.15;3.03;;;7.40;99.90;;;;;;5033726;28;20454;-35
2023/02/11 02:10:59;;;;;;;12.82;2.50;;;7.40;99.90;;;;;;5020522;28;20029;-34
2023/02/11 02:13:26;;;;;;;13.75;2.50;;;7.30;99.90;;;;;;5014033;28;20026;-37
2023/02/11 02:16:12;;;;;;;17.02;2.60;;;7.30;99.90;;;;;;5024018;28;20484;-36
2023/02/11 02:19:02;;;;;;;9.00;1.95;;;7.20;99.90;;;;;;5033771;28;20500;-34
2023/02/11 02:21:58;;;;;;;12.00;3.05;;;7.20;99.90;;;;;;5033284;28;20078;-36
2023/02/11 02:24:55;;;;;;;7.75;2.30;;;7.10;99.90;;;;;;5032314;28;20056;-36
2023/02/11 02:27:45;;;;;;;12.75;3.47;;;7.10;99.90;;;;;;5031605;28;20053;-32
2023/02/11 02:31:13;;;;;;;17.15;2.65;;;7.00;99.90;;;;;;5033209;28;20029;-34
2023/02/11 02:33:49;;;;;;;;;;;7.00;99.90;;;;;;5011763;28;20596;-36
2023/02/11 02:36:33;;;;;;;16.48;2.03;;;7.00;99.90;;;;;;5030450;28;19916;-46
2023/02/11 02:39:17;;;;;;;25.48;4.32;;;7.00;99.90;;;;;;5029962;28;20618;-47
2023/02/11 02:41:45;;;;;;;18.45;2.05;;;7.00;99.90;;;;;;5021190;28;20595;-47
2023/02/11 02:44:11;;;;;;;22.70;3.13;;;7.00;99.90;;;;;;5013485;28;20045;-48
2023/02/11 02:46:37;;;;;;;7.95;2.72;;;6.90;99.90;;;;;;5014886;28;20447;-47
2023/02/11 02:49:05;;;;;;;15.18;3.25;;;6.90;99.90;;;;;;5013389;28;20109;-48
2023/02/11 02:51:39;;;;;;;;;;;6.80;99.90;;;;;;5013678;28;20508;-48
2023/02/11 02:54:42;;;;;;;8.18;2.28;;;6.80;99.90;;;;;;5013635;28;19916;-48
2023/02/11 02:58:05;;;;;;;22.65;3.97;;;6.70;99.90;;;;;;5007310;28;20057;-36
2023/02/11 03:01:05;;;;;;;10.98;3.42;;;6.70;99.90;;;;;;5029791;28;20124;-35
2023/02/11 03:03:50;;;;;;;15.75;2.33;;;6.60;99.90;;;;;;5030062;28;20510;-48
2023/02/11 03:06:41;;;;;;;15.25;2.97;;;6.50;99.90;;;;;;5032530;28;20533;-48
2023/02/11 03:09:29;;;;;;;17.42;4.22;;;6.60;99.90;;;;;;5011809;28;20045;-49
2023/02/11 03:12:14;;;;;;;9.32;3.55;;;6.60;99.90;;;;;;5032732;28;20489;-47
2023/02/11 03:14:40;;;;;;;22.45;3.67;;;6.50;99.90;;;;;;5032706;28;20100;-48
2023/02/11 03:17:07;;;;;;;20.15;3.00;;;6.50;99.90;;;;;;5034869;28;20561;-46
2023/02/11 03:19:39;;;;;;;18.83;2.97;;;6.50;99.90;;;;;;5039595;28;20466;-47
2023/02/11 03:22:11;;;;;;;16.85;3.88;;;6.50;99.90;;;;;;5032101;28;20026;-48
2023/02/11 03:24:40;;;;;;;16.27;3.35;;;6.50;99.90;;;;;;5019304;28;20045;-36
2023/02/11 03:27:22;;;;;;;14.68;3.20;;;6.50;99.90;;;;;;5019502;28;20026;-35
2023/02/11 03:30:15;;;;;;;10.50;3.05;;;6.40;99.90;;;;;;5022386;28;20037;-46
2023/02/11 03:32:54;;;;;;;12.95;3.22;;;6.50;99.90;;;;;;5039165;28;20498;-47
2023/02/11 03:35:31;;;;;;;24.73;3.70;;;6.40;99.90;;;;;;5039269;28;20028;-47
2023/02/11 03:38:01;;;;;;;16.38;3.25;;;6.50;99.90;;;;;;5038175;28;20037;-48
2023/02/11 03:40:46;;;;;;;17.33;4.05;;;6.50;99.90;;;;;;5039420;28;20055;-44
2023/02/11 03:43:17;;;;;;;10.38;4.18;;;6.40;99.90;;;;;;5038497;28;20053;-46
2023/02/11 03:45:44;;;;;;;17.95;3.60;;;6.30;99.90;;;;;;5037911;28;20044;-39
2023/02/11 03:48:15;;;;;;;16.00;4.68;;;6.30;99.90;;;;;;5038456;28;20028;-34
2023/02/11 03:50:44;;;;;;;11.05;4.20;;;6.30;99.90;;;;;;5036785;28;20041;-37
2023/02/11 03:53:11;;;;;;;18.75;4.50;;;6.30;99.90;;;;;;5038879;28;20021;-35
2023/02/11 03:55:39;;;;;;;23.35;4.63;;;6.30;99.90;;;;;;5039305;28;20474;-36
2023/02/11 03:58:05;;;;;;;17.90;4.30;;;6.20;99.90;;;;;;5039259;28;20478;-35
2023/02/11 04:00:33;;;;;;;10.57;3.88;;;6.20;99.90;;;;;;5037402;28;20029;-37
2023/02/11 04:02:59;;;;;;;19.42;4.90;;;6.20;99.90;;;;;;5038981;28;20025;-37
2023/02/11 04:05:24;;;;;;;13.43;4.78;;;6.20;99.90;;;;;;5037685;28;20167;-37
2023/02/11 04:07:50;;;;;;;20.55;5.07;;;6.30;99.90;;;;;;5037340;28;20029;-37
2023/02/11 04:10:16;;;;;;;22.90;7.53;;;6.30;99.90;;;;;;5031892;28;20514;-37
2023/02/11 04:12:41;;;;;;;17.02;4.57;;;6.30;99.90;;;;;;5033254;28;20036;-35
2023/02/11 04:15:08;;;;;;;17.38;4.72;;;6.30;99.90;;;;;;5037452;28;20102;-37
2023/02/11 04:17:34;;;;;;;14.20;4.13;;;6.30;99.90;;;;;;5037562;28;20051;-47
2023/02/11 04:19:59;;;;;;;24.83;5.57;;;6.30;99.90;;;;;;5038807;28;20432;-48
2023/02/11 04:22:25;;;;;;;18.33;5.07;;;6.30;99.90;;;;;;5024836;28;20490;-47
2023/02/11 04:24:51;;;;;;;31.65;4.95;;;6.30;99.90;;;;;;5018766;28;20042;-47
2023/02/11 04:27:16;;;;;;;20.15;4.72;;;6.40;99.90;;;;;;5037716;28;20026;-48
2023/02/11 04:29:42;;;;;;;22.00;4.32;;;6.40;99.90;;;;;;5034462;28;20056;-47
2023/02/11 04:32:09;;;;;;;10.77;4.50;;;6.50;99.90;;;;;;5034644;28;20450;-36
2023/02/11 04:34:35;;;;;;;18.60;5.43;;;6.50;99.90;;;;;;5021239;28;20041;-33
2023/02/11 04:37:00;;;;;;;17.10;5.40;;;6.60;99.90;;;;;;5014440;28;20532;-36
2023/02/11 04:39:26;;;;;;;27.27;4.80;;;6.50;99.90;;;;;;5024171;28;20017;-37
2023/02/11 04:41:51;;;;;;;18.45;5.28;;;6.60;99.90;;;;;;5028758;28;20398;-32
2023/02/11 04:44:17;;;;;;;24.92;4.90;;;6.60;99.90;;;;;;5035371;28;20497;-34
2023/02/11 04:46:43;;;;;;;26.27;5.50;;;6.70;99.90;;;;;;5032181;28;20569;-37
2023/02/11 04:49:12;;;;;;;22.58;5.03;;;6.70;99.90;;;;;;5035235;28;20390;-36
2023/02/11 04:51:37;;;;;;;20.30;5.07;;;6.70;99.90;;;;;;5033116;28;20030;-33
2023/02/11 04:54:03;;;;;;;16.10;4.35;;;6.70;99.90;;;;;;5034358;28;20140;-33
2023/02/11 04:56:29;;;;;;;19.60;5.60;;;6.70;99.90;;;;;;5018449;28;20021;-34
2023/02/11 04:58:54;;;;;;;17.63;4.50;;;6.70;99.90;;;;;;5015299;28;20029;-47
2023/02/11 05:01:20;;;;;;;13.55;4.18;;;6.70;99.90;;;;;;5021139;28;20030;-46
2023/02/11 05:03:46;;;;;;;19.48;5.07;;;6.80;99.90;;;;;;5028876;28;20022;-47
2023/02/11 05:06:11;;;;;;;24.02;6.22;;;6.80;99.90;;;;;;5034974;28;20104;-47
2023/02/11 05:08:37;;;;;;;17.85;4.88;;;6.80;99.90;;;;;;5034901;28;20033;-48
2023/02/11 05:11:03;;;;;;;18.02;4.93;;;6.80;99.90;;;;;;5033779;28;20026;-48
2023/02/11 05:13:29;;;;;;;24.08;4.80;;;6.90;99.90;;;;;;5034786;28;20394;-48
2023/02/11 05:15:55;;;;;;;24.48;5.40;;;6.90;99.90;;;;;;5033650;28;20428;-41
2023/02/11 05:18:21;;;;;;;16.80;4.72;;;6.80;99.90;;;;;;5032061;28;20018;-46
2023/02/11 05:20:47;;;;;;;21.58;5.32;;;6.80;99.90;;;;;;5033903;28;20034;-47
2023/02/11 05:23:12;;;;;;;21.13;5.18;;;6.80;99.90;;;;;;5033276;28;20547;-49
2023/02/11 05:25:38;;;;;;;25.45;5.63;;;6.90;99.90;;;;;;5033398;28;20053;-47
2023/02/11 05:28:05;;;;;;;18.40;5.18;;;6.90;99.90;;;;;;5028104;28;20062;-48
2023/02/11 05:30:31;;;;;;;28.05;5.57;;;7.00;99.90;;;;;;5021208;28;20367;-48
2023/02/11 05:32:57;;;;;;;21.20;5.45;;;7.00;99.90;;;;;;5034445;28;20382;-47
2023/02/11 05:35:23;;;;;;;21.35;6.00;;;7.00;99.90;;;;;;5034639;28;20024;-47
2023/02/11 05:37:49;;;;;;;28.83;5.57;;;7.00;99.90;;;;;;5030081;28;20533;-48
2023/02/11 05:40:15;;;;;;;19.73;6.00;;;7.00;99.90;;;;;;5014425;28;20104;-46
2023/02/11 05:42:40;;;;;;;18.52;6.13;;;7.00;99.90;;;;;;5032429;28;20512;-47
2023/02/11 05:45:06;;;;;;;22.80;6.53;;;6.90;99.90;;;;;;5034503;28;20049;-47
2023/02/11 05:47:32;;;;;;;19.20;6.07;;;6.90;99.90;;;;;;5032365;28;20049;-48
2023/02/11 05:49:57;;;;;;;24.02;6.50;;;6.90;99.90;;;;;;5023847;28;20104;-38
2023/02/11 05:52:23;;;;;;;27.35;6.70;;;6.90;99.90;;;;;;5029357;28;20033;-37
2023/02/11 05:54:49;;;;;;;21.88;6.22;;;6.90;99.90;;;;;;5017907;28;20486;-34
2023/02/11 05:57:15;;;;;;;20.20;6.82;;;7.00;99.90;;;;;;5014231;28;20509;-36
2023/02/11 05:59:41;;;;;;;20.50;6.80;;;7.00;99.90;;;;;;5022980;28;20524;-37
2023/02/11 06:02:09;;;;;;;21.33;6.32;;;7.00;99.90;;;;;;5032617;28;20053;-35
2023/02/11 06:04:35;;;;;;;24.20;6.45;;;7.10;99.90;;;;;;5033857;28;20030;-32
2023/02/11 06:07:02;;;;;;;27.52;6.85;;;7.10;99.90;;;;;;5033813;28;20029;-48
2023/02/11 06:09:27;;;;;;;20.55;6.05;;;7.10;99.90;;;;;;5027848;28;20036;-50
2023/02/11 06:11:53;;;;;;;22.23;6.45;;;7.00;99.90;;;;;;5024424;28;20482;-47
2023/02/11 06:14:18;;;;;;;20.73;7.28;;;7.10;99.90;;;;;;5033597;28;20112;-48
2023/02/11 06:16:44;;;;;;;28.70;8.57;;;7.10;99.90;;;;;;5032692;28;20549;-48
2023/02/11 06:19:10;;;;;;;16.92;6.78;;;7.20;99.90;;;;;;5033609;28;20482;-38
2023/02/11 06:21:36;;;;;;;23.98;6.43;;;7.20;99.90;;;;;;5017363;28;20025;-33
2023/02/11 06:24:02;;;;;;;23.88;6.45;;;7.20;99.90;;;;;;5015326;28;20172;-33
2023/02/11 06:26:28;;;;;;;25.52;7.20;;;7.20;99.90;;;;;;5044995;28;20030;-48
2023/02/11 06:28:53;;;;;;;23.65;7.75;;;7.20;99.90;;;;;;5013738;28;20033;-47
2023/02/11 06:31:19;;;;;;;23.70;6.68;;;7.20;99.90;;;;;;5026837;28;20389;-48
2023/02/11 06:33:45;;;;;;;18.48;6.22;;;7.30;99.90;;;;;;5033353;28;20104;-50
2023/02/11 06:36:16;;;;;;;24.80;7.32;;;7.30;99.90;;;;;;5031484;28;20504;-47
2023/02/11 06:38:42;;;;;;;23.83;7.25;;;7.30;99.90;;;;;;5033222;28;20482;-48
2023/02/11 06:41:10;;;;;;;20.77;6.30;;;7.30;99.90;;;;;;5031703;28;20477;-40
2023/02/11 06:43:35;;;;;;;28.02;7.38;;;7.30;99.90;;;;;;5033088;28;20485;-48
2023/02/11 06:46:01;;;;;;;29.08;8.38;;;7.40;99.90;;;;;;5024037;28;20026;-47
2023/02/11 06:48:27;;;;;;;24.90;8.15;;;7.40;99.90;;;;;;5013275;28;20032;-48
2023/02/11 06:50:52;;;;;;;22.67;8.15;;;7.40;99.90;;;;;;5021788;28;20036;-47
2023/02/11 06:53:18;;;;;;;31.17;8.00;;;7.40;99.90;;;;;;5032822;28;20021;-48
2023/02/11 06:55:43;;;;;;;26.33;8.07;;;7.30;99.90;;;;;;5029259;28;20037;-48
2023/02/11 06:58:09;;;;;;;28.42;7.78;;;7.30;99.90;;;;;;5033250;28;20385;-48
2023/02/11 07:00:35;;;;;;;19.02;8.52;;;7.40;99.90;;;;;;5030323;28;20037;-48
2023/02/11 07:03:01;;;;;;;27.95;8.15;;;7.40;99.90;;;;;;5032921;28;20025;-48
2023/02/11 07:05:26;;;;;;;26.23;7.40;;;7.40;99.90;;;;;;5030107;28;20143;-47
2023/02/11 07:07:52;;;;;;;20.23;7.63;;;7.40;99.90;;;;;;5033097;28;20480;-37
2023/02/11 07:10:18;;;;;;;24.77;7.88;;;7.40;99.90;;;;;;5013598;28;20034;-35
2023/02/11 07:12:43;;;;;;;18.85;7.47;;;7.40;99.90;;;;;;5013238;28;20382;-37
2023/02/11 07:15:09;;;;;;;27.10;8.43;;;7.40;99.90;;;;;;5013438;28;20025;-35
2023/02/11 07:17:35;;;;;;;22.17;8.50;;;7.40;99.90;;;;;;5033073;28;20033;-33
2023/02/11 07:20:01;;;;;;;19.00;7.63;;;7.50;99.90;;;;;;5032669;28;20536;-37
2023/02/11 07:22:26;;;;;;;21.75;7.70;;;7.50;99.90;;;;;;5032703;28;20057;-49
2023/02/11 07:24:52;;;;;;;28.42;8.90;;;7.50;99.90;;;;;;5017742;28;20054;-47
2023/02/11 07:27:18;;;;;;;25.92;8.85;;;7.50;99.90;;;;;;5012973;28;20540;-48
2023/02/11 07:29:45;;;;;;;22.33;8.77;;;7.60;99.90;;;;;;5024424;28;20057;-47
2023/02/11 07:32:12;;;;;;;30.73;9.23;;;7.60;99.90;;;;;;5017785;28;20469;-48
2023/02/11 07:34:37;;;;;;;21.75;9.25;;;7.60;99.90;;;;;;5032916;28;20026;-47
2023/02/11 07:37:03;;;;;;;29.30;9.82;;;7.60;99.90;;;;;;5032653;28;20052;-48
2023/02/11 07:39:28;;;;;;;32.22;9.10;;;7.60;99.90;;;;;;5032814;28;20469;-47
2023/02/11 07:41:54;;;;;;;27.75;8.95;;;7.60;99.90;;;;;;5032765;28;20614;-48
2023/02/11 07:44:20;;;;;;;30.40;9.75;;;7.70;99.90;;;;;;5029737;28;20083;-47
2023/02/11 07:46:47;;;;;;;27.38;10.27;;;7.70;99.90;;;;;;5031793;28;20033;-36
2023/02/11 07:49:14;;;;;;;30.42;9.52;;;7.70;99.90;;;;;;5032614;28;20025;-33
2023/02/11 07:51:39;;;;;;;24.25;9.40;;;7.70;99.90;;;;;;5030228;28;20091;-37
2023/02/11 07:54:05;;;;;;;26.95;9.40;;;7.80;99.90;;;;;;5031466;28;20436;-37
2023/02/11 07:56:32;;;;;;;22.13;10.13;;;7.80;99.90;;;;;;5012852;28;20023;-33
2023/02/11 07:59:03;;;;;;;27.30;9.23;;;7.80;99.90;;;;;;5010960;28;20088;-30
2023/02/11 08:01:29;;;;;;;18.75;8.77;;;7.80;99.90;;;;;;5021196;28;20063;-34
2023/02/11 08:03:57;;;;;;;27.30;9.35;;;7.80;99.90;;;;;;5020585;28;20030;-35
2023/02/11 08:06:25;;;;;;;25.40;6.40;;;7.90;99.90;;;;;;5016908;28;20133;-34
2023/02/11 08:08:51;;;;;;;23.55;9.20;;;7.90;99.90;;;;;;5016687;28;20120;-36
2023/02/11 08:11:27;;;;;;;22.50;8.90;;;8.00;99.90;;;;;;5034703;28;20108;-36
2023/02/11 08:13:54;;;;;;;20.98;8.70;;;7.90;99.90;;;;;;5034626;28;20028;-30
2023/02/11 08:16:20;;;;;;;23.17;6.83;;;8.00;99.90;;;;;;5016466;28;20474;-37
2023/02/11 08:18:46;;;;;;;27.02;9.48;;;8.00;99.90;;;;;;5016123;28;20032;-39
2023/02/11 08:21:12;;;;;;;29.70;10.77;;;8.10;99.90;;;;;;5032586;28;20039;-39
2023/02/11 08:23:39;;;;;;;23.88;10.75;;;8.10;99.90;;;;;;5034099;28;20536;-37
2023/02/11 08:26:08;;;;;;;23.67;10.18;;;8.20;99.90;;;;;;5035472;28;20551;-36
2023/02/11 08:28:39;;;;;;;27.33;9.13;;;8.20;99.90;;;;;;5035713;28;20044;-36
2023/02/11 08:31:16;;;;;;;28.75;9.70;;;8.20;99.90;;;;;;5028082;28;20545;-37
2023/02/11 08:33:42;;;;;;;30.67;9.18;;;8.20;99.90;;;;;;5015850;28;20419;-37
2023/02/11 08:36:22;;;;;;;32.00;10.27;;;8.30;99.90;;;;;;5015756;28;20109;-36
2023/02/11 08:38:48;;;;;;;25.52;9.45;;;8.30;99.90;;;;;;5019647;28;20470;-37
2023/02/11 08:41:14;;;;;;;23.92;10.00;;;8.30;99.90;;;;;;5033773;28;20026;-37
2023/02/11 08:43:43;;;;;;;27.58;10.63;;;8.40;99.90;;;;;;5034492;28;20029;-36
2023/02/11 08:46:13;;;;;;;29.95;10.32;;;8.40;99.90;;;;;;5035370;28;20038;-38
2023/02/11 08:48:39;;;;;;;28.13;9.98;;;8.30;99.90;;;;;;5035319;28;20033;-37
2023/02/11 08:51:12;;;;;;;25.35;10.23;;;8.40;99.90;;;;;;5035483;28;20033;-38
2023/02/11 08:53:56;;;;;;;27.33;10.07;;;8.50;99.90;;;;;;5034506;28;20041;-39
2023/02/11 08:56:22;;;;;;;28.77;10.07;;;8.50;99.90;;;;;;5034149;28;20029;-36
2023/02/11 08:58:49;;;;;;;20.55;10.07;;;8.50;99.90;;;;;;5025544;28;20030;-38
2023/02/11 09:01:23;;;;;;;27.33;10.23;;;8.50;99.90;;;;;;5035323;28;20481;-36
2023/02/11 09:03:49;;;;;;;28.95;10.52;;;8.60;99.90;;;;;;5035067;28;20022;-36
2023/02/11 09:06:16;;;;;;;27.35;10.45;;;8.60;99.90;;;;;;5035203;28;20044;-38
2023/02/11 09:08:44;;;;;;;34.75;11.30;;;8.50;99.90;;;;;;5035045;28;20486;-34
2023/02/11 09:11:10;;;;;;;;;;;8.50;99.90;;;;;;5032000;28;20393;-39
2023/02/11 09:13:36;;;;;;;22.48;9.32;;;8.60;99.90;;;;;;5033099;28;19917;-40
2023/02/11 09:16:04;;;;;;;24.70;10.05;;;8.70;99.90;;;;;;5034105;28;20028;-38
2023/02/11 09:18:30;;;;;;;23.80;10.70;;;8.70;99.90;;;;;;5035007;28;20018;-38
2023/02/11 09:21:07;;;;;;;27.75;10.73;;;8.70;99.90;;;;;;5034987;28;20117;-37
2023/02/11 09:23:34;;;;;;;22.80;10.30;;;8.70;99.90;;;;;;5034622;28;20017;-39
2023/02/11 09:26:25;;;;;;;25.30;10.55;;;8.80;99.90;;;;;;5034412;28;20049;-37
2023/02/11 09:28:51;;;;;;;21.92;10.50;;;8.80;99.90;;;;;;5028847;28;20509;-35
2023/02/11 09:31:20;;;;;;;29.10;9.68;;;8.90;99.90;;;;;;5034611;28;20397;-39
2023/02/11 09:33:47;;;;;;;26.90;9.27;;;8.90;99.90;;;;;;5034455;28;20025;-49
2023/02/11 09:36:18;;;;;;;30.40;10.90;;;9.00;99.90;;;;;;5034401;28;20079;-48
2023/02/11 09:38:44;;;;;;;24.60;9.60;;;9.00;99.90;;;;;;5034700;28;20157;-41
2023/02/11 09:41:22;;;;;;;26.38;11.20;;;9.10;99.90;;;;;;5033516;28;20029;-36
2023/02/11 09:43:56;;;;;;;30.15;10.63;;;9.20;99.90;;;;;;5021659;28;20058;-37
2023/02/11 09:46:23;;;;;;;30.13;12.20;;;9.10;99.90;;;;;;5026238;28;20029;-37
2023/02/11 09:48:51;;;;;;;31.23;12.15;;;9.20;99.90;;;;;;5032961;28;20406;-38
2023/02/11 09:51:31;;;;;;;28.42;11.75;;;9.20;99.90;;;;;;5034031;28;20022;-38
2023/02/11 09:54:02;;;;;;;27.98;11.20;;;9.20;99.90;;;;;;5034033;28;20474;-39
2023/02/11 09:56:28;;;;;;;30.52;11.02;;;9.30;99.90;;;;;;5029399;28;20482;-38
2023/02/11 09:58:54;;;;;;;25.33;10.85;;;9.30;99.90;;;;;;5014218;28;20033;-39
2023/02/11 10:02:07;;;;;;;24.70;10.77;;;9.40;99.90;;;;;;5016801;28;20030;-36
2023/02/11 10:05:11;;;;;;;30.17;11.70;;;9.50;99.90;;;;;;5033287;28;20120;-39
2023/02/11 10:07:46;;;;;;;26.88;11.18;;;9.60;99.90;;;;;;5025878;28;20045;-38
2023/02/11 10:10:19;;;;;;;23.17;10.80;;;9.50;99.90;;;;;;5010547;28;20080;-33
2023/02/11 10:13:06;;;;;;;25.63;11.30;;;9.50;99.90;;;;;;5030203;28;20400;-36
2023/02/11 10:15:40;;;;;;;22.88;10.63;;;9.60;99.90;;;;;;5033595;28;20022;-35
2023/02/11 10:18:27;;;;;;;31.63;11.57;;;9.70;99.90;;;;;;5023662;28;20555;-39
2023/02/11 10:21:05;;;;;;;38.90;11.15;;;9.80;99.90;;;;;;5013486;28;20478;-38
2023/02/11 10:23:38;;;;;;;20.35;9.93;;;9.80;99.90;;;;;;5013462;28;20022;-38
2023/02/11 10:26:14;;;;;;;23.55;11.02;;;9.80;99.90;;;;;;5031075;28;20493;-35
2023/02/11 10:28:44;;;;;;;26.33;11.13;;;9.90;99.90;;;;;;5033460;28;20025;-39
2023/02/11 10:31:20;;;;;;;25.88;11.20;;;9.90;99.90;;;;;;5032403;28;20481;-38
2023/02/11 10:34:04;;;;;;;28.02;11.50;;;10.00;99.90;;;;;;5031850;28;20030;-37
2023/02/11 10:36:34;;;;;;;26.40;10.50;;;10.00;99.90;;;;;;5033598;28;20021;-40
2023/02/11 10:39:12;;;;;;;23.15;9.93;;;10.10;99.90;;;;;;5032544;28;20474;-36
2023/02/11 10:41:43;;;;;;;21.75;10.85;;;10.20;99.90;;;;;;5033518;28;20026;-40
2023/02/11 10:44:21;;;;;;;26.75;10.40;;;10.30;99.90;;;;;;5033223;28;20155;-36
2023/02/11 10:46:48;;;;;;;22.48;10.80;;;10.40;99.90;;;;;;5018388;28;20076;-40
2023/02/11 10:49:33;;;;;;;24.80;10.60;;;10.60;99.90;;;;;;5013030;28;20042;-38
2023/02/11 10:52:18;;;;;;;19.63;10.25;;;10.80;99.90;;;;;;5019098;28;20501;-38
2023/02/11 10:55:04;;;;;;;25.27;10.15;;;10.90;99.90;;;;;;5033347;28;20099;-38
2023/02/11 10:57:34;;;;;;;23.02;10.23;;;11.00;99.90;;;;;;5033222;28;20482;-39
2023/02/11 11:00:24;;;;;;;20.88;10.23;;;11.20;99.90;;;;;;5025910;28;20064;-37
2023/02/11 11:02:58;;;;;;;19.42;9.30;;;11.20;99.90;;;;;;5022840;28;20042;-38
2023/02/11 11:05:31;;;;;;;16.83;8.93;;;11.30;99.90;;;;;;5029920;28;20037;-39
2023/02/11 11:08:06;;;;;;;17.38;9.18;;;11.40;99.90;;;;;;5031441;28;20040;-36
2023/02/11 11:10:43;;;;;;;18.35;9.48;;;11.50;99.90;;;;;;5021027;28;20103;-38
2023/02/11 11:13:25;;;;;;;18.25;9.13;;;11.50;99.90;;;;;;5016414;28;20481;-39
2023/02/11 11:16:10;;;;;;;17.33;8.68;;;11.50;99.90;;;;;;5025250;28;20087;-38
2023/02/11 11:18:35;;;;;;;20.90;8.27;;;11.60;99.90;;;;;;5020412;28;20092;-35
2023/02/11 11:21:21;;;;;;;19.65;9.20;;;11.60;99.90;;;;;;5032176;28;20025;-39
2023/02/11 11:23:58;;;;;;;19.73;9.48;;;11.50;99.90;;;;;;5021270;28;20038;-39
2023/02/11 11:26:39;;;;;;;15.35;8.15;;;11.50;99.90;;;;;;5027983;28;20514;-37
2023/02/11 11:29:50;;;;;;;10.18;6.45;;;11.40;99.90;;;;;;5012708;28;20076;-37
2023/02/11 11:32:22;;;;;;;13.35;6.47;;;11.50;99.90;;;;;;5022968;28;20383;-36
2023/02/11 11:34:51;;;;;;;17.10;7.50;;;11.60;99.90;;;;;;5023918;28;20029;-41
2023/02/11 11:37:25;;;;;;;15.07;6.18;;;11.60;99.90;;;;;;5024784;28;20022;-40
2023/02/11 11:40:14;;;;;;;13.65;5.68;;;11.70;99.90;;;;;;5029068;28;20531;-40
2023/02/11 11:42:40;;;;;;;13.73;6.00;;;11.60;99.90;;;;;;5028671;28;20037;-35
2023/02/11 11:45:15;;;;;;;11.63;4.90;;;11.60;99.90;;;;;;5034224;28;20037;-38
2023/02/11 11:47:46;;;;;;;7.43;5.05;;;11.60;99.90;;;;;;5036430;28;20427;-37
2023/02/11 11:50:32;;;;;;;13.55;5.82;;;11.60;99.90;;;;;;5036423;28;20041;-37
2023/02/11 11:53:37;;;;;;;10.00;5.15;;;11.50;99.90;;;;;;5034880;28;20034;-39
2023/02/11 11:56:10;;;;;;;10.40;5.07;;;11.40;99.90;;;;;;5036604;28;20473;-37
2023/02/11 11:58:36;;;;;;;11.15;5.18;;;11.40;99.90;;;;;;5036584;28;20519;-35
2023/02/11 12:01:13;;;;;;;9.98;4.65;;;11.40;99.90;;;;;;5032694;28;20057;-40
2023/02/11 12:04:02;;;;;;;7.68;4.22;;;11.30;99.90;;;;;;5036560;28;20505;-39
2023/02/11 12:06:59;;;;;;;7.80;4.57;;;11.30;99.90;;;;;;5036385;28;20072;-37
2023/02/11 12:09:42;;;;;;;13.73;5.20;;;11.20;99.90;;;;;;5035750;28;20037;-37
2023/02/11 12:12:58;;;;;;;15.07;4.85;;;11.20;99.90;;;;;;5035898;28;20037;-38
2023/02/11 12:15:32;;;;;;;9.52;4.95;;;11.20;99.90;;;;;;5031544;28;20179;-37
2023/02/11 12:18:08;;;;;;;8.77;4.78;;;11.10;99.90;;;;;;5028845;28;20458;-39
2023/02/11 12:21:30;;;;;;;11.40;4.43;;;10.90;99.90;;;;;;5016139;28;20041;-39
2023/02/11 12:24:13;;;;;;;10.02;4.30;;;10.80;99.90;;;;;;5013832;28;20585;-40
2023/02/11 12:27:02;;;;;;;11.77;4.40;;;10.80;99.90;;;;;;5013657;28;20490;-40
2023/02/11 12:29:56;;;;;;;8.05;4.32;;;10.90;99.90;;;;;;5030663;28;20041;-40
2023/02/11 12:32:52;;;;;;;10.50;4.63;;;10.90;99.90;;;;;;5035724;28;20372;-40
2023/02/11 12:35:32;;;;;;;9.90;5.50;;;10.90;99.90;;;;;;5023803;28;20037;-40
2023/02/11 12:38:27;;;;;;;9.68;4.65;;;11.00;99.90;;;;;;5025742;28;20108;-39
2023/02/11 12:41:11;;;;;;;9.45;4.75;;;10.90;99.90;;;;;;5035378;28;20033;-40
2023/02/11 12:43:43;;;;;;;8.70;4.18;;;11.10;99.90;;;;;;5035334;28;20029;-40
2023/02/11 12:46:32;;;;;;;6.57;4.55;;;11.20;99.90;;;;;;5029507;28;20034;-39
2023/02/11 12:49:13;;;;;;;7.95;4.28;;;11.10;99.90;;;;;;5026594;28;20026;-39
2023/02/11 12:51:48;;;;;;;7.75;4.43;;;11.10;99.90;;;;;;5034262;28;20108;-40
2023/02/11 12:54:22;;;;;;;6.72;4.22;;;10.80;99.90;;;;;;5034569;28;20017;-41
2023/02/11 12:57:01;;;;;;;9.90;4.78;;;10.90;99.90;;;;;;5035193;28;20028;-42
2023/02/11 12:59:55;;;;;;;16.48;4.63;;;11.10;99.90;;;;;;5015931;28;20026;-39
2023/02/11 13:02:38;;;;;;;9.57;4.93;;;11.30;99.90;;;;;;5013983;28;20030;-40
2023/02/11 13:05:31;;;;;;;6.72;4.68;;;11.30;99.90;;;;;;5014137;28;20026;-42
2023/02/11 13:08:08;;;;;;;10.25;5.70;;;11.30;99.90;;;;;;5014758;28;20026;-39
2023/02/11 13:10:37;;;;;;;8.63;5.72;;;11.40;99.90;;;;;;5030679;28;20075;-41
2023/02/11 13:13:26;;;;;;;11.88;4.88;;;11.10;99.90;;;;;;5032360;28;20382;-40
2023/02/11 13:16:04;;;;;;;10.13;4.30;;;11.20;99.90;;;;;;5019762;28;20079;-39